Time;durP1;ratioP1;P1;durP2;ratioP2;P2;SDS_P1;SDS_P2;PMS_P1;PMS_P2;Temp;Humidity;BMP_temperature;BMP_pressure;BME280_temperature;BME280_humidity;BME280_pressure;Samples;Min_cycle;Max_cycle;Signal;HPM_P1;HPM_P2
2021/03/05 00:00:37;;;;;;;2.47;1.30;;;;;;;;;;4988154;28;20396;-73
2021/03/05 00:03:03;;;;;;;2.67;1.15;;;;;;;;;;4987925;28;20035;-74
2021/03/05 00:05:28;;;;;;;2.97;1.33;;;;;;;;;;4988074;28;20034;-73
2021/03/05 00:07:54;;;;;;;2.80;1.23;;;;;;;;;;4987724;28;20065;-73
2021/03/05 00:10:23;;;;;;;3.72;1.48;;;;;;;;;;4988090;28;20440;-74
2021/03/05 00:12:49;;;;;;;2.83;1.33;;;;;;;;;;4987852;28;20035;-74
2021/03/05 00:15:14;;;;;;;3.20;1.30;;;;;;;;;;4983661;28;20046;-73
2021/03/05 00:17:40;;;;;;;2.15;1.02;;;;;;;;;;4971473;28;20142;-73
2021/03/05 00:20:15;;;;;;;3.08;1.17;;;;;;;;;;4984712;28;20149;-73
2021/03/05 00:22:40;;;;;;;2.53;0.98;;;;;;;;;;4987292;28;20027;-73
2021/03/05 00:25:06;;;;;;;2.15;1.30;;;;;;;;;;4971673;28;20035;-73
2021/03/05 00:27:32;;;;;;;3.17;1.10;;;;;;;;;;4971775;28;20039;-73
2021/03/05 00:29:57;;;;;;;2.20;0.93;;;;;;;;;;4971019;28;20038;-73
2021/03/05 00:32:23;;;;;;;2.08;1.08;;;;;;;;;;4955683;28;20039;-73
2021/03/05 00:34:48;;;;;;;2.00;0.80;;;;;;;;;;4958050;28;20041;-74
2021/03/05 00:37:14;;;;;;;2.60;1.05;;;;;;;;;;4987657;28;20178;-73
2021/03/05 00:39:39;;;;;;;2.67;1.08;;;;;;;;;;4987545;28;20060;-73
2021/03/05 00:42:05;;;;;;;1.85;0.70;;;;;;;;;;4987664;28;20512;-74
2021/03/05 00:44:30;;;;;;;3.08;1.13;;;;;;;;;;4987736;28;20381;-73
2021/03/05 00:46:56;;;;;;;2.92;0.98;;;;;;;;;;4987087;28;20030;-73
2021/03/05 00:49:21;;;;;;;2.75;1.00;;;;;;;;;;4987681;28;20071;-73
2021/03/05 00:51:47;;;;;;;1.63;0.73;;;;;;;;;;4987716;28;20070;-73
2021/03/05 00:54:12;;;;;;;3.10;0.93;;;;;;;;;;4987394;28;20363;-73
2021/03/05 00:56:38;;;;;;;2.70;0.90;;;;;;;;;;5003694;28;20035;-73
2021/03/05 00:59:03;;;;;;;2.72;0.80;;;;;;;;;;4987364;28;20046;-73
2021/03/05 01:01:29;;;;;;;2.25;1.08;;;;;;;;;;4970285;28;20513;-73
2021/03/05 01:03:54;;;;;;;1.60;0.82;;;;;;;;;;5003820;28;20042;-73
2021/03/05 01:06:19;;;;;;;1.88;0.70;;;;;;;;;;4971306;28;20393;-73
2021/03/05 01:08:45;;;;;;;2.65;0.90;;;;;;;;;;4971155;28;20035;-73
2021/03/05 01:11:10;;;;;;;3.08;0.90;;;;;;;;;;4971271;28;20027;-74
2021/03/05 01:13:36;;;;;;;3.00;1.00;;;;;;;;;;4960313;28;20365;-73
2021/03/05 01:16:01;;;;;;;3.70;0.93;;;;;;;;;;4974155;28;20049;-73
2021/03/05 01:18:27;;;;;;;3.42;1.02;;;;;;;;;;4990532;28;20042;-73
2021/03/05 01:20:52;;;;;;;2.85;0.75;;;;;;;;;;4974294;28;20034;-73
2021/03/05 01:23:18;;;;;;;2.38;0.82;;;;;;;;;;4974340;28;20061;-73
2021/03/05 01:25:43;;;;;;;2.08;0.80;;;;;;;;;;4957016;28;20102;-73
2021/03/05 01:28:09;;;;;;;3.13;0.77;;;;;;;;;;4971201;28;20485;-73
2021/03/05 01:30:34;;;;;;;2.72;0.80;;;;;;;;;;4971307;28;20040;-73
2021/03/05 01:33:00;;;;;;;3.83;1.02;;;;;;;;;;4971388;28;20035;-73
2021/03/05 01:35:26;;;;;;;3.00;0.82;;;;;;;;;;4974112;28;20034;-73
2021/03/05 01:37:52;;;;;;;2.80;1.00;;;;;;;;;;4990622;28;20039;-73
2021/03/05 01:40:24;;;;;;;3.00;0.73;;;;;;;;;;5007287;28;20041;-73
2021/03/05 01:42:49;;;;;;;3.05;0.63;;;;;;;;;;5005509;28;20034;-73
2021/03/05 01:45:26;;;;;;;3.65;1.20;;;;;;;;;;4990406;28;20038;-73
2021/03/05 01:47:56;;;;;;;2.10;0.65;;;;;;;;;;4990522;28;20066;-73
2021/03/05 01:50:27;;;;;;;2.90;0.80;;;;;;;;;;4990143;28;20027;-73
2021/03/05 01:52:56;;;;;;;3.95;0.98;;;;;;;;;;4990255;28;20046;-73
2021/03/05 01:55:22;;;;;;;3.33;1.10;;;;;;;;;;4989982;28;20045;-73
2021/03/05 01:57:47;;;;;;;3.00;1.00;;;;;;;;;;4974014;28;20106;-73
2021/03/05 02:00:13;;;;;;;2.65;0.68;;;;;;;;;;4974039;28;20110;-73
2021/03/05 02:02:39;;;;;;;4.38;0.93;;;;;;;;;;4974373;28;20113;-73
2021/03/05 02:05:05;;;;;;;3.15;0.77;;;;;;;;;;4973955;28;20115;-73
2021/03/05 02:07:30;;;;;;;2.42;0.88;;;;;;;;;;4974204;28;20528;-73
2021/03/05 02:09:56;;;;;;;1.88;0.57;;;;;;;;;;4957813;28;20397;-73
2021/03/05 02:12:22;;;;;;;3.20;0.70;;;;;;;;;;4990216;28;20061;-73
2021/03/05 02:14:47;;;;;;;2.15;0.63;;;;;;;;;;4988286;28;20030;-73
2021/03/05 02:17:49;;;;;;;2.42;0.95;;;;;;;;;;4976945;28;20038;-73
2021/03/05 02:20:30;;;;;;;2.45;0.80;;;;;;;;;;4993098;28;20085;-73
2021/03/05 02:23:23;;;;;;;3.47;1.10;;;;;;;;;;4994260;28;20106;-73
2021/03/05 02:26:06;;;;;;;2.92;0.88;;;;;;;;;;4974728;28;20110;-73
2021/03/05 02:28:47;;;;;;;2.90;1.35;;;;;;;;;;4972446;28;20408;-73
2021/03/05 02:31:28;;;;;;;3.30;1.17;;;;;;;;;;4974219;28;20093;-73
2021/03/05 02:33:56;;;;;;;3.58;1.17;;;;;;;;;;4958333;28;20026;-73
2021/03/05 02:36:25;;;;;;;3.75;0.90;;;;;;;;;;4970477;28;20573;-73
2021/03/05 02:39:03;;;;;;;2.47;0.80;;;;;;;;;;4954151;28;20054;-73
2021/03/05 02:41:29;;;;;;;2.10;0.70;;;;;;;;;;4970275;28;20046;-73
2021/03/05 02:43:54;;;;;;;4.13;0.85;;;;;;;;;;4954634;28;20490;-73
2021/03/05 02:46:20;;;;;;;4.70;1.20;;;;;;;;;;4953242;28;20066;-73
2021/03/05 02:48:47;;;;;;;4.00;0.88;;;;;;;;;;4956234;28;20385;-73
2021/03/05 02:51:13;;;;;;;3.70;0.98;;;;;;;;;;4989528;28;20046;-73
2021/03/05 02:53:38;;;;;;;3.92;0.95;;;;;;;;;;4973167;28;20030;-73
2021/03/05 02:56:15;;;;;;;3.50;0.90;;;;;;;;;;4989334;28;20041;-73
2021/03/05 02:58:41;;;;;;;3.05;0.60;;;;;;;;;;4989973;28;20031;-73
2021/03/05 03:01:07;;;;;;;3.25;0.90;;;;;;;;;;4989491;28;20143;-73
2021/03/05 03:03:33;;;;;;;2.75;0.90;;;;;;;;;;4989341;28;20043;-73
2021/03/05 03:05:58;;;;;;;3.50;1.33;;;;;;;;;;4988957;28;20485;-73
2021/03/05 03:08:23;;;;;;;4.22;1.00;;;;;;;;;;4988917;28;20389;-73
2021/03/05 03:10:49;;;;;;;3.75;0.80;;;;;;;;;;4989378;28;20385;-73
2021/03/05 03:13:15;;;;;;;4.47;0.85;;;;;;;;;;4990879;28;20030;-73
2021/03/05 03:15:40;;;;;;;2.92;0.68;;;;;;;;;;4976242;28;20035;-73
2021/03/05 03:18:08;;;;;;;4.13;1.08;;;;;;;;;;4975858;28;20026;-73
2021/03/05 03:20:34;;;;;;;2.47;0.63;;;;;;;;;;4991948;28;20030;-73
2021/03/05 03:22:59;;;;;;;3.58;1.90;;;;;;;;;;4975796;28;20027;-73
2021/03/05 03:25:25;;;;;;;3.53;1.10;;;;;;;;;;4960571;28;20041;-73
2021/03/05 03:27:50;;;;;;;3.85;0.90;;;;;;;;;;4972759;28;20444;-73
2021/03/05 03:30:17;;;;;;;4.93;1.20;;;;;;;;;;4972361;28;20047;-73
2021/03/05 03:32:42;;;;;;;3.22;1.00;;;;;;;;;;4972805;28;20379;-73
2021/03/05 03:35:09;;;;;;;3.58;0.80;;;;;;;;;;4969029;28;20047;-73
2021/03/05 03:37:34;;;;;;;3.13;1.00;;;;;;;;;;4954135;28;20031;-73
2021/03/05 03:40:01;;;;;;;4.68;1.10;;;;;;;;;;4985137;28;20038;-73
2021/03/05 03:42:27;;;;;;;3.47;0.98;;;;;;;;;;4987985;28;20482;-73
2021/03/05 03:44:53;;;;;;;5.35;0.90;;;;;;;;;;4970624;28;20059;-73
2021/03/05 03:47:22;;;;;;;3.45;1.15;;;;;;;;;;4968968;28;20449;-73
2021/03/05 03:49:52;;;;;;;3.05;1.27;;;;;;;;;;4968916;28;20039;-73
2021/03/05 03:52:22;;;;;;;4.00;1.30;;;;;;;;;;4968547;28;20035;-73
2021/03/05 03:54:47;;;;;;;4.40;1.02;;;;;;;;;;4985207;28;20041;-73
2021/03/05 03:57:13;;;;;;;4.70;0.88;;;;;;;;;;4968386;28;20031;-73
2021/03/05 03:59:38;;;;;;;3.55;1.10;;;;;;;;;;4968588;28;20390;-73
2021/03/05 04:02:04;;;;;;;2.70;0.70;;;;;;;;;;4969090;28;20038;-73
2021/03/05 04:04:31;;;;;;;3.08;0.85;;;;;;;;;;4952647;29;20093;-73
2021/03/05 04:06:56;;;;;;;3.30;0.95;;;;;;;;;;4968615;28;20490;-73
2021/03/05 04:09:22;;;;;;;2.63;0.95;;;;;;;;;;4984472;28;20078;-73
2021/03/05 04:11:47;;;;;;;3.78;1.02;;;;;;;;;;4968861;28;20039;-73
2021/03/05 04:14:12;;;;;;;2.28;0.77;;;;;;;;;;4972890;28;20038;-73
2021/03/05 04:16:38;;;;;;;3.58;1.48;;;;;;;;;;4974970;28;20035;-73
2021/03/05 04:19:03;;;;;;;2.85;1.30;;;;;;;;;;4974918;28;20038;-73
2021/03/05 04:21:30;;;;;;;4.28;1.00;;;;;;;;;;4991129;28;20396;-73
2021/03/05 04:23:56;;;;;;;2.17;0.80;;;;;;;;;;4971750;28;20037;-73
2021/03/05 04:26:21;;;;;;;3.33;1.25;;;;;;;;;;4955725;28;20821;-73
2021/03/05 04:28:47;;;;;;;3.38;1.30;;;;;;;;;;4970721;28;20042;-73
2021/03/05 04:31:13;;;;;;;4.50;1.13;;;;;;;;;;4971646;28;20062;-73
2021/03/05 04:33:38;;;;;;;3.80;1.55;;;;;;;;;;4956015;28;20046;-73
2021/03/05 04:36:04;;;;;;;3.38;1.27;;;;;;;;;;4971357;28;20392;-73
2021/03/05 04:38:29;;;;;;;5.55;1.48;;;;;;;;;;4971666;28;20389;-73
2021/03/05 04:40:55;;;;;;;3.60;1.08;;;;;;;;;;4952264;28;20118;-72
2021/03/05 04:43:20;;;;;;;3.65;1.25;;;;;;;;;;4968539;28;20437;-73
2021/03/05 04:45:46;;;;;;;4.70;1.40;;;;;;;;;;4952290;29;20074;-73
2021/03/05 04:48:11;;;;;;;3.65;1.55;;;;;;;;;;4968282;28;20039;-73
2021/03/05 04:50:37;;;;;;;2.65;0.82;;;;;;;;;;4953105;28;20491;-73
2021/03/05 04:53:03;;;;;;;3.95;1.20;;;;;;;;;;4983926;28;20035;-73
2021/03/05 04:55:28;;;;;;;3.05;1.33;;;;;;;;;;4952380;29;20113;-73
2021/03/05 04:57:54;;;;;;;4.45;1.17;;;;;;;;;;4984187;28;20035;-73
2021/03/05 05:00:20;;;;;;;3.85;1.50;;;;;;;;;;4968012;28;20425;-73
2021/03/05 05:02:45;;;;;;;2.80;0.95;;;;;;;;;;4952280;29;20430;-73
2021/03/05 05:05:11;;;;;;;6.85;2.08;;;;;;;;;;4967544;28;20505;-73
2021/03/05 05:07:36;;;;;;;2.95;0.93;;;;;;;;;;4967789;28;20039;-73
2021/03/05 05:10:02;;;;;;;3.35;0.82;;;;;;;;;;4954471;28;20062;-72
2021/03/05 05:12:28;;;;;;;2.80;1.30;;;;;;;;;;4972208;28;20039;-73
2021/03/05 05:14:53;;;;;;;3.50;1.15;;;;;;;;;;5002280;28;20022;-73
2021/03/05 05:17:19;;;;;;;3.22;1.20;;;;;;;;;;4978036;28;20431;-72
2021/03/05 05:19:44;;;;;;;2.92;0.90;;;;;;;;;;4995342;28;20448;-73
2021/03/05 05:22:10;;;;;;;3.25;1.27;;;;;;;;;;4977701;28;20145;-72
2021/03/05 05:24:37;;;;;;;5.32;1.85;;;;;;;;;;4969613;28;20381;-73
2021/03/05 05:27:04;;;;;;;2.63;0.90;;;;;;;;;;4991615;28;20456;-72
2021/03/05 05:29:29;;;;;;;3.13;0.95;;;;;;;;;;4974559;28;20030;-73
2021/03/05 05:31:54;;;;;;;3.97;1.08;;;;;;;;;;4957513;28;20490;-72
2021/03/05 05:34:20;;;;;;;3.03;0.80;;;;;;;;;;5008896;28;20097;-72
2021/03/05 05:36:45;;;;;;;3.75;1.23;;;;;;;;;;4994110;28;20039;-72
2021/03/05 05:39:11;;;;;;;3.28;1.00;;;;;;;;;;4977461;28;20407;-72
2021/03/05 05:41:36;;;;;;;4.30;1.40;;;;;;;;;;4994063;28;20038;-72
2021/03/05 05:44:02;;;;;;;4.03;1.33;;;;;;;;;;4993895;28;20030;-73
2021/03/05 05:46:27;;;;;;;2.50;0.88;;;;;;;;;;4994078;28;20397;-72
2021/03/05 05:48:53;;;;;;;2.63;0.98;;;;;;;;;;4993774;28;20431;-72
2021/03/05 05:51:22;;;;;;;3.58;1.13;;;;;;;;;;4993802;28;20046;-72
2021/03/05 05:53:47;;;;;;;3.45;0.80;;;;;;;;;;4993912;28;20031;-72
2021/03/05 05:56:17;;;;;;;1.98;0.85;;;;;;;;;;4993779;28;20049;-73
2021/03/05 05:58:43;;;;;;;3.40;1.00;;;;;;;;;;4993624;28;20108;-72
2021/03/05 06:01:09;;;;;;;3.40;1.30;;;;;;;;;;4993474;28;20130;-72
2021/03/05 06:03:34;;;;;;;2.97;0.98;;;;;;;;;;4977675;28;20027;-73
2021/03/05 06:05:59;;;;;;;4.63;1.45;;;;;;;;;;4993232;28;20105;-72
2021/03/05 06:08:25;;;;;;;2.42;0.90;;;;;;;;;;4993430;28;20389;-72
2021/03/05 06:10:53;;;;;;;3.42;1.30;;;;;;;;;;4993272;28;20431;-72
2021/03/05 06:13:19;;;;;;;3.80;1.20;;;;;;;;;;4993442;28;20034;-73
2021/03/05 06:15:44;;;;;;;2.67;1.05;;;;;;;;;;4977576;28;20038;-73
2021/03/05 06:18:27;;;;;;;3.10;1.00;;;;;;;;;;4976737;28;20493;-72
2021/03/05 06:20:53;;;;;;;2.58;0.95;;;;;;;;;;4976016;28;20121;-72
2021/03/05 06:23:18;;;;;;;2.38;1.02;;;;;;;;;;4975017;28;20119;-73
2021/03/05 06:25:44;;;;;;;4.00;1.30;;;;;;;;;;4951005;28;20066;-73
2021/03/05 06:28:13;;;;;;;4.72;1.00;;;;;;;;;;4958879;28;20065;-73
2021/03/05 06:30:39;;;;;;;4.00;1.52;;;;;;;;;;5004283;28;20089;-73
2021/03/05 06:33:23;;;;;;;4.32;1.13;;;;;;;;;;4941322;28;20034;-74
2021/03/05 06:35:49;;;;;;;2.88;1.20;;;;;;;;;;4993301;28;20030;-73
2021/03/05 06:38:40;;;;;;;3.05;1.02;;;;;;;;;;4992770;28;20034;-73
2021/03/05 06:41:28;;;;;;;4.35;1.30;;;;;;;;;;4994203;28;20030;-73
2021/03/05 06:43:59;;;;;;;1.55;0.80;;;;;;;;;;4992633;28;20165;-73
2021/03/05 06:46:35;;;;;;;3.28;1.70;;;;;;;;;;4957997;28;20099;-73
2021/03/05 06:49:12;;;;;;;3.08;1.13;;;;;;;;;;4989503;28;20031;-73
2021/03/05 06:51:38;;;;;;;2.28;0.80;;;;;;;;;;4989745;28;20034;-73
2021/03/05 06:54:12;;;;;;;2.58;1.13;;;;;;;;;;4972928;28;20027;-73
2021/03/05 06:56:39;;;;;;;3.47;1.20;;;;;;;;;;4990196;28;20066;-73
2021/03/05 06:59:05;;;;;;;3.42;0.98;;;;;;;;;;4989281;28;20035;-73
2021/03/05 07:01:31;;;;;;;3.60;1.02;;;;;;;;;;4957098;28;20031;-73
2021/03/05 07:04:26;;;;;;;2.95;1.05;;;;;;;;;;4989283;28;20085;-73
2021/03/05 07:07:07;;;;;;;3.38;1.02;;;;;;;;;;4956971;28;20035;-73
2021/03/05 07:09:43;;;;;;;3.30;1.20;;;;;;;;;;5005194;28;20061;-72
2021/03/05 07:12:10;;;;;;;2.50;0.80;;;;;;;;;;4972717;28;20039;-72
2021/03/05 07:14:37;;;;;;;2.30;0.85;;;;;;;;;;5008761;28;20038;-73
2021/03/05 07:17:02;;;;;;;1.73;0.82;;;;;;;;;;4975689;28;20034;-73
2021/03/05 07:19:30;;;;;;;2.25;1.00;;;;;;;;;;4974101;28;20432;-72
2021/03/05 07:21:56;;;;;;;5.15;1.13;;;;;;;;;;4956849;28;20035;-74
2021/03/05 07:24:23;;;;;;;2.90;1.25;;;;;;;;;;4956741;28;20037;-73
2021/03/05 07:27:01;;;;;;;8.43;1.13;;;;;;;;;;4972524;28;20302;-75
2021/03/05 07:29:28;;;;;;;4.28;1.80;;;;;;;;;;4971154;28;20085;-73
2021/03/05 07:32:04;;;;;;;3.60;1.00;;;;;;;;;;4972035;28;20054;-73
2021/03/05 07:34:31;;;;;;;3.45;1.30;;;;;;;;;;4956524;28;20449;-73
2021/03/05 07:37:00;;;;;;;8.88;2.00;;;;;;;;;;4972256;28;20033;-73
2021/03/05 07:39:30;;;;;;;8.50;1.23;;;;;;;;;;4955972;28;20095;-73
2021/03/05 07:41:56;;;;;;;6.93;1.13;;;;;;;;;;4972636;28;20035;-73
2021/03/05 07:44:22;;;;;;;5.00;1.23;;;;;;;;;;4956416;28;20041;-72
2021/03/05 07:46:49;;;;;;;5.57;1.58;;;;;;;;;;4956022;28;20031;-73
2021/03/05 07:49:15;;;;;;;5.30;1.63;;;;;;;;;;4956042;28;20035;-73
2021/03/05 07:51:40;;;;;;;3.42;1.10;;;;;;;;;;4963018;28;20031;-72
2021/03/05 07:54:06;;;;;;;4.85;1.35;;;;;;;;;;4968686;28;20456;-73
2021/03/05 07:56:44;;;;;;;5.05;1.23;;;;;;;;;;4969624;28;20533;-73
2021/03/05 07:59:10;;;;;;;2.30;0.73;;;;;;;;;;4984755;28;20042;-73
2021/03/05 08:01:51;;;;;;;6.25;1.08;;;;;;;;;;4972591;28;20027;-73
2021/03/05 08:04:16;;;;;;;7.28;1.20;;;;;;;;;;4971667;28;20039;-73
2021/03/05 08:07:08;;;;;;;3.05;1.38;;;;;;;;;;4955697;28;20472;-73
2021/03/05 08:09:41;;;;;;;4.65;1.20;;;;;;;;;;4969285;28;20105;-73
2021/03/05 08:12:48;;;;;;;5.65;1.67;;;;;;;;;;4971587;28;20033;-73
2021/03/05 08:15:14;;;;;;;4.28;0.98;;;;;;;;;;4974575;28;20026;-72
2021/03/05 08:17:40;;;;;;;6.25;1.33;;;;;;;;;;4972910;28;20485;-72
2021/03/05 08:20:09;;;;;;;6.15;1.20;;;;;;;;;;4972681;28;20512;-74
2021/03/05 08:23:03;;;;;;;5.35;1.23;;;;;;;;;;4955604;28;20031;-74
2021/03/05 08:25:49;;;;;;;5.47;1.20;;;;;;;;;;4972715;28;20030;-74
2021/03/05 08:28:42;;;;;;;3.58;1.45;;;;;;;;;;4986638;28;20031;-74
2021/03/05 08:31:33;;;;;;;4.80;2.03;;;;;;;;;;4972116;28;20047;-73
2021/03/05 08:34:27;;;;;;;13.40;2.92;;;;;;;;;;4970610;28;20050;-73
2021/03/05 08:36:53;;;;;;;7.13;2.42;;;;;;;;;;4971626;28;20138;-75
2021/03/05 08:39:22;;;;;;;6.63;2.47;;;;;;;;;;4971930;28;20125;-75
2021/03/05 08:41:48;;;;;;;4.88;2.50;;;;;;;;;;4955267;28;20045;-74
2021/03/05 08:44:14;;;;;;;4.70;2.17;;;;;;;;;;4971924;28;20034;-74
2021/03/05 08:46:39;;;;;;;4.43;2.20;;;;;;;;;;4955442;29;20240;-74
2021/03/05 08:49:05;;;;;;;7.05;2.08;;;;;;;;;;4972444;28;20098;-74
2021/03/05 08:51:34;;;;;;;5.20;2.30;;;;;;;;;;4988472;28;20050;-74
2021/03/05 08:53:59;;;;;;;5.93;2.10;;;;;;;;;;4956225;28;20039;-74
2021/03/05 08:56:28;;;;;;;4.57;2.03;;;;;;;;;;4988673;28;20370;-74
2021/03/05 08:58:58;;;;;;;5.22;1.88;;;;;;;;;;4988032;28;20038;-74
2021/03/05 09:01:42;;;;;;;4.50;2.25;;;;;;;;;;4988260;28;20035;-74
2021/03/05 09:04:17;;;;;;;5.90;2.00;;;;;;;;;;4988158;28;20047;-74
2021/03/05 09:06:56;;;;;;;4.88;1.75;;;;;;;;;;4972045;28;20031;-74
2021/03/05 09:09:30;;;;;;;5.93;1.65;;;;;;;;;;4972063;28;20035;-74
2021/03/05 09:12:13;;;;;;;4.43;1.60;;;;;;;;;;4971731;28;20031;-74
2021/03/05 09:14:45;;;;;;;4.97;1.58;;;;;;;;;;4988773;28;20109;-74
2021/03/05 09:17:11;;;;;;;6.38;1.63;;;;;;;;;;4979254;28;20109;-74
2021/03/05 09:19:49;;;;;;;4.07;1.42;;;;;;;;;;4978331;28;20039;-74
2021/03/05 09:22:22;;;;;;;2.70;1.20;;;;;;;;;;4978567;28;20096;-74
2021/03/05 09:25:00;;;;;;;2.33;1.20;;;;;;;;;;4968320;28;20098;-74
2021/03/05 09:27:28;;;;;;;4.25;1.17;;;;;;;;;;4974974;28;20109;-74
2021/03/05 09:29:53;;;;;;;1.77;0.98;;;;;;;;;;4976113;28;20070;-74
2021/03/05 09:32:19;;;;;;;3.20;0.90;;;;;;;;;;4958774;28;20461;-74
2021/03/05 09:34:58;;;;;;;2.67;1.10;;;;;;;;;;4955394;28;20031;-74
2021/03/05 09:37:28;;;;;;;3.15;1.25;;;;;;;;;;4972089;28;20031;-74
2021/03/05 09:39:55;;;;;;;1.70;0.60;;;;;;;;;;4967162;28;20035;-74
2021/03/05 09:42:55;;;;;;;4.70;0.95;;;;;;;;;;5006956;28;20035;-74
2021/03/05 09:45:43;;;;;;;3.05;0.60;;;;;;;;;;4990590;28;20038;-74
2021/03/05 09:48:28;;;;;;;2.63;0.85;;;;;;;;;;4991099;28;20035;-74
2021/03/05 09:51:15;;;;;;;2.15;0.93;;;;;;;;;;4993145;28;20109;-74
2021/03/05 09:54:07;;;;;;;2.88;1.05;;;;;;;;;;4993180;28;20046;-74
2021/03/05 09:56:41;;;;;;;3.43;0.70;;;;;;;;;;4973404;28;20046;-74
2021/03/05 09:59:06;;;;;;;2.28;0.70;;;;;;;;;;4990542;28;20336;-74
2021/03/05 10:01:34;;;;;;;2.47;1.00;;;;;;;;;;5007093;28;20051;-74
2021/03/05 10:04:01;;;;;;;1.65;0.70;;;;;;;;;;4990083;28;20031;-74
2021/03/05 10:06:27;;;;;;;1.98;0.80;;;;;;;;;;4990486;28;20031;-74
2021/03/05 10:09:12;;;;;;;1.83;0.80;;;;;;;;;;4990562;28;20086;-74
2021/03/05 10:11:38;;;;;;;2.47;0.80;;;;;;;;;;4990215;28;20520;-74
2021/03/05 10:14:07;;;;;;;2.33;1.15;;;;;;;;;;4982751;28;20101;-74
2021/03/05 10:16:34;;;;;;;1.45;0.60;;;;;;;;;;4976992;28;20108;-74
2021/03/05 10:19:16;;;;;;;2.60;0.75;;;;;;;;;;4977250;28;20041;-74
2021/03/05 10:21:46;;;;;;;2.72;0.55;;;;;;;;;;4977324;28;20033;-74
2021/03/05 10:24:13;;;;;;;1.85;0.93;;;;;;;;;;4971848;28;20034;-74
2021/03/05 10:27:10;;;;;;;1.75;0.52;;;;;;;;;;4958016;28;20042;-74
2021/03/05 10:29:24;;;;;;;2.30;1.05;;;;;;;;;;4973769;28;20043;-74
2021/03/05 10:31:53;;;;;;;2.80;0.60;;;;;;;;;;4956783;28;20046;-74
2021/03/05 10:34:19;;;;;;;2.42;0.73;;;;;;;;;;4958775;28;20030;-74
2021/03/05 10:36:45;;;;;;;2.00;0.52;;;;;;;;;;4993219;28;20042;-74
2021/03/05 10:39:10;;;;;;;2.20;0.77;;;;;;;;;;4992720;28;20555;-74
2021/03/05 10:41:37;;;;;;;1.48;0.50;;;;;;;;;;4992876;28;20038;-74
2021/03/05 10:44:02;;;;;;;2.17;0.80;;;;;;;;;;4977078;28;20485;-74
2021/03/05 10:46:28;;;;;;;2.35;0.70;;;;;;;;;;4976480;28;20041;-74
2021/03/05 10:48:53;;;;;;;2.10;0.95;;;;;;;;;;4992634;28;20034;-74
2021/03/05 10:51:18;;;;;;;1.60;0.40;;;;;;;;;;4992798;28;20440;-74
2021/03/05 10:53:44;;;;;;;2.15;0.63;;;;;;;;;;4992634;28;20428;-74
2021/03/05 10:56:09;;;;;;;1.50;0.95;;;;;;;;;;4992324;28;20381;-74
2021/03/05 10:58:35;;;;;;;2.10;0.80;;;;;;;;;;4992760;28;20448;-74
2021/03/05 11:01:00;;;;;;;1.88;0.70;;;;;;;;;;4992707;28;20488;-74
2021/03/05 11:03:26;;;;;;;3.00;1.08;;;;;;;;;;4992310;28;20038;-74
2021/03/05 11:05:51;;;;;;;2.03;1.00;;;;;;;;;;4976301;28;20397;-74
2021/03/05 11:08:19;;;;;;;3.50;1.50;;;;;;;;;;4991755;28;20400;-74
2021/03/05 11:10:44;;;;;;;2.22;1.30;;;;;;;;;;4992629;28;20128;-74
2021/03/05 11:13:10;;;;;;;1.83;0.93;;;;;;;;;;4992435;28;20078;-74
2021/03/05 11:15:35;;;;;;;2.15;0.90;;;;;;;;;;4976298;28;20092;-74
2021/03/05 11:18:01;;;;;;;1.67;0.70;;;;;;;;;;4992054;28;20070;-74
2021/03/05 11:20:26;;;;;;;1.98;0.85;;;;;;;;;;4993343;28;20034;-74
2021/03/05 11:22:53;;;;;;;2.55;1.20;;;;;;;;;;4991945;28;20030;-74
2021/03/05 11:25:19;;;;;;;1.95;0.98;;;;;;;;;;4962244;28;20031;-74
2021/03/05 11:27:44;;;;;;;2.25;1.33;;;;;;;;;;4972044;28;20114;-74
2021/03/05 11:30:10;;;;;;;2.40;1.23;;;;;;;;;;4972954;28;20039;-74
2021/03/05 11:32:35;;;;;;;2.00;0.98;;;;;;;;;;4972790;28;20030;-74
2021/03/05 11:35:01;;;;;;;2.10;0.90;;;;;;;;;;4979913;28;20026;-74
2021/03/05 11:37:29;;;;;;;2.63;1.33;;;;;;;;;;4991869;28;20437;-74
2021/03/05 11:39:55;;;;;;;2.58;1.20;;;;;;;;;;4991929;28;20034;-74
2021/03/05 11:42:21;;;;;;;2.20;1.13;;;;;;;;;;4991920;28;20034;-74
2021/03/05 11:44:46;;;;;;;1.77;0.95;;;;;;;;;;4991863;28;20041;-74
2021/03/05 11:47:12;;;;;;;2.17;1.40;;;;;;;;;;4991776;28;20107;-74
2021/03/05 11:49:37;;;;;;;2.50;1.20;;;;;;;;;;4975578;28;20435;-74
2021/03/05 11:52:03;;;;;;;2.55;1.17;;;;;;;;;;4991594;28;20061;-74
2021/03/05 11:54:31;;;;;;;1.50;0.90;;;;;;;;;;4975910;28;20030;-74
2021/03/05 11:56:57;;;;;;;2.67;0.70;;;;;;;;;;4991837;28;20041;-74
2021/03/05 11:59:22;;;;;;;2.30;0.80;;;;;;;;;;4991261;28;20416;-74
2021/03/05 12:01:47;;;;;;;2.45;1.05;;;;;;;;;;4991562;28;20386;-74
2021/03/05 12:04:13;;;;;;;2.70;1.55;;;;;;;;;;5008009;28;20042;-73
2021/03/05 12:06:38;;;;;;;1.30;0.75;;;;;;;;;;4991270;28;20408;-74
2021/03/05 12:09:04;;;;;;;1.55;0.60;;;;;;;;;;4991074;28;20381;-74
2021/03/05 12:11:30;;;;;;;1.30;0.50;;;;;;;;;;4975709;28;20026;-74
2021/03/05 12:13:55;;;;;;;2.25;0.52;;;;;;;;;;4991278;28;20037;-74
2021/03/05 12:16:21;;;;;;;1.30;0.65;;;;;;;;;;4975213;28;20440;-74
2021/03/05 12:18:46;;;;;;;1.17;0.77;;;;;;;;;;4990170;28;20441;-74
2021/03/05 12:21:12;;;;;;;1.23;0.43;;;;;;;;;;4967265;28;20078;-74
2021/03/05 12:23:38;;;;;;;1.77;0.50;;;;;;;;;;4985078;28;20032;-74
2021/03/05 12:26:03;;;;;;;1.60;0.40;;;;;;;;;;4971928;28;20046;-74
2021/03/05 12:28:29;;;;;;;1.40;0.50;;;;;;;;;;4971902;28;20041;-74
2021/03/05 12:30:55;;;;;;;1.27;0.40;;;;;;;;;;4971841;28;20066;-74
2021/03/05 12:33:20;;;;;;;1.15;0.40;;;;;;;;;;4955992;28;20042;-74
2021/03/05 12:35:46;;;;;;;1.02;0.38;;;;;;;;;;4984822;28;20027;-74
2021/03/05 12:38:11;;;;;;;1.45;0.60;;;;;;;;;;4991211;28;20061;-74
2021/03/05 12:40:37;;;;;;;1.80;0.63;;;;;;;;;;4991108;28;20165;-74
2021/03/05 12:43:03;;;;;;;1.45;0.60;;;;;;;;;;4991234;28;20810;-74
2021/03/05 12:45:28;;;;;;;1.42;0.50;;;;;;;;;;4990125;28;20053;-74
2021/03/05 12:47:53;;;;;;;2.00;0.70;;;;;;;;;;4989251;28;20481;-74
2021/03/05 12:50:19;;;;;;;0.80;0.30;;;;;;;;;;4990115;28;20388;-74
2021/03/05 12:52:44;;;;;;;1.48;0.50;;;;;;;;;;4990258;28;20373;-74
2021/03/05 12:55:10;;;;;;;2.00;0.88;;;;;;;;;;4990265;28;20104;-74
2021/03/05 12:57:36;;;;;;;0.68;0.40;;;;;;;;;;4990615;28;20034;-74
2021/03/05 13:00:03;;;;;;;2.08;0.50;;;;;;;;;;4991668;28;20072;-74
2021/03/05 13:02:29;;;;;;;2.70;0.82;;;;;;;;;;4990895;28;20041;-75
2021/03/05 13:04:54;;;;;;;1.92;0.57;;;;;;;;;;4990553;28;20022;-74
2021/03/05 13:07:19;;;;;;;1.73;0.60;;;;;;;;;;4990805;28;20373;-74
2021/03/05 13:09:45;;;;;;;3.42;0.75;;;;;;;;;;4990727;28;20455;-74
2021/03/05 13:12:11;;;;;;;1.73;0.60;;;;;;;;;;4990775;28;20121;-74
2021/03/05 13:14:36;;;;;;;1.60;0.50;;;;;;;;;;4991036;28;20477;-74
2021/03/05 13:17:02;;;;;;;1.75;0.60;;;;;;;;;;4955677;28;20053;-74
2021/03/05 13:19:27;;;;;;;1.45;0.77;;;;;;;;;;4972405;28;20378;-74
2021/03/05 13:21:53;;;;;;;1.35;0.60;;;;;;;;;;4971347;28;20039;-74
2021/03/05 13:24:19;;;;;;;1.20;0.45;;;;;;;;;;4971034;28;20102;-74
2021/03/05 13:26:44;;;;;;;0.95;0.43;;;;;;;;;;4987375;28;20027;-74
2021/03/05 13:29:10;;;;;;;1.73;0.45;;;;;;;;;;4987312;28;20066;-74
2021/03/05 13:31:35;;;;;;;1.80;0.40;;;;;;;;;;4990406;28;20043;-74
2021/03/05 13:34:01;;;;;;;1.40;0.60;;;;;;;;;;4990706;28;20113;-74
2021/03/05 13:36:26;;;;;;;1.88;0.32;;;;;;;;;;4975151;28;20393;-74
2021/03/05 13:38:52;;;;;;;2.22;0.43;;;;;;;;;;4990754;28;20031;-74
2021/03/05 13:41:17;;;;;;;1.10;0.40;;;;;;;;;;4974546;28;20066;-74
2021/03/05 13:43:43;;;;;;;1.27;0.40;;;;;;;;;;4975028;28;20385;-74
2021/03/05 13:46:11;;;;;;;1.45;0.45;;;;;;;;;;4974465;28;20441;-74
2021/03/05 13:48:36;;;;;;;3.75;0.43;;;;;;;;;;4974440;28;20488;-74
2021/03/05 13:51:01;;;;;;;2.25;0.30;;;;;;;;;;4973791;28;21298;-74
2021/03/05 13:53:27;;;;;;;1.48;0.30;;;;;;;;;;4995415;28;20049;-75
2021/03/05 13:55:53;;;;;;;1.52;0.30;;;;;;;;;;4966602;28;20126;-74
2021/03/05 13:58:18;;;;;;;3.13;0.60;;;;;;;;;;4958678;28;20045;-74
2021/03/05 14:00:44;;;;;;;1.63;0.30;;;;;;;;;;4971045;28;20039;-74
2021/03/05 14:03:10;;;;;;;2.55;0.40;;;;;;;;;;4956048;28;20108;-74
2021/03/05 14:05:36;;;;;;;2.72;0.90;;;;;;;;;;4974083;28;20110;-74
2021/03/05 14:08:01;;;;;;;1.42;0.52;;;;;;;;;;4991195;28;20042;-74
2021/03/05 14:10:33;;;;;;;1.35;0.40;;;;;;;;;;4968773;28;20031;-74
2021/03/05 14:12:58;;;;;;;2.60;0.70;;;;;;;;;;4945458;28;20070;-74
2021/03/05 14:15:45;;;;;;;3.63;0.95;;;;;;;;;;4991690;28;20490;-74
2021/03/05 14:18:11;;;;;;;1.27;0.40;;;;;;;;;;4974143;28;20034;-74
2021/03/05 14:20:36;;;;;;;2.85;0.50;;;;;;;;;;4983934;28;20031;-74
2021/03/05 14:23:02;;;;;;;3.25;0.52;;;;;;;;;;4976452;28;20039;-75
2021/03/05 14:25:27;;;;;;;1.40;0.77;;;;;;;;;;4986746;28;20443;-74
2021/03/05 14:27:53;;;;;;;2.60;0.40;;;;;;;;;;5006093;28;20043;-74
2021/03/05 14:30:19;;;;;;;2.63;0.40;;;;;;;;;;4973662;28;20051;-74
2021/03/05 14:32:47;;;;;;;2.92;0.88;;;;;;;;;;4957301;28;20489;-74
2021/03/05 14:35:15;;;;;;;1.52;0.32;;;;;;;;;;4967197;28;20022;-74
2021/03/05 14:37:41;;;;;;;0.90;0.30;;;;;;;;;;4993116;28;20432;-74
2021/03/05 14:40:07;;;;;;;1.25;0.40;;;;;;;;;;4986024;28;20042;-74
2021/03/05 14:42:32;;;;;;;2.10;0.60;;;;;;;;;;4956719;28;20035;-74
2021/03/05 14:44:58;;;;;;;2.08;0.40;;;;;;;;;;4973354;28;20031;-74
2021/03/05 14:47:23;;;;;;;2.60;0.55;;;;;;;;;;4972815;28;20042;-74
2021/03/05 14:49:49;;;;;;;3.70;0.75;;;;;;;;;;4973282;28;20049;-74